Time,TemperatureF,DewpointF,PressureIn,WindDirection,WindDirectionDegrees,WindSpeedMPH,WindSpeedGustMPH,Humidity,HourlyPrecipIn,Conditions,Clouds,dailyrainin,SoftwareType,DateUTC
2013-05-19 00:02:00,68.2,57.2,30.03,East,90,3.0,8.0,68,0.00,,,0.00,meteohub,2013-05-19 05:02:00,
2013-05-19 00:07:00,68.2,57.2,30.03,ESE,112,2.0,7.0,68,0.00,,,0.00,meteohub,2013-05-19 05:07:00,
2013-05-19 00:12:00,68.0,57.0,30.03,ESE,112,3.0,7.0,68,0.00,,,0.00,meteohub,2013-05-19 05:12:00,
2013-05-19 00:17:00,67.8,57.2,30.03,ESE,112,2.0,6.0,69,0.00,,,0.00,meteohub,2013-05-19 05:17:00,
2013-05-19 00:22:00,67.6,57.2,30.03,East,90,2.0,6.0,69,0.00,,,0.00,meteohub,2013-05-19 05:22:00,
2013-05-19 00:27:00,67.5,57.0,30.03,ESE,112,5.0,6.0,69,0.00,,,0.00,meteohub,2013-05-19 05:27:00,
2013-05-19 00:32:00,67.5,57.4,30.03,East,90,4.0,6.0,70,0.00,,,0.00,meteohub,2013-05-19 05:32:00,
2013-05-19 00:37:00,67.5,57.4,30.03,East,90,6.0,7.0,70,0.00,,,0.00,meteohub,2013-05-19 05:37:00,
2013-05-19 00:42:00,67.3,57.2,30.03,ESE,112,3.0,7.0,70,0.00,,,0.00,meteohub,2013-05-19 05:42:00,
2013-05-19 00:47:00,67.1,57.0,30.03,ESE,112,4.0,9.0,70,0.00,,,0.00,meteohub,2013-05-19 05:47:00,
2013-05-19 00:52:00,67.1,57.0,30.03,ESE,112,3.0,9.0,70,0.00,,,0.00,meteohub,2013-05-19 05:52:00,
2013-05-19 00:57:00,66.9,56.8,30.03,East,90,4.0,7.0,70,0.00,,,0.00,meteohub,2013-05-19 05:57:00,
2013-05-19 01:02:00,66.9,56.8,30.03,East,90,5.0,6.0,70,0.00,,,0.00,meteohub,2013-05-19 06:02:00,
2013-05-19 01:07:00,66.7,56.7,30.06,East,90,2.0,6.0,70,0.00,,,0.00,meteohub,2013-05-19 06:07:00,
2013-05-19 01:12:00,66.6,56.5,30.06,SE,135,0.0,5.0,70,0.00,,,0.00,meteohub,2013-05-19 06:12:00,
2013-05-19 01:17:00,66.4,56.7,30.06,ESE,112,0.0,5.0,71,0.00,,,0.00,meteohub,2013-05-19 06:17:00,
2013-05-19 01:22:00,66.2,56.5,30.06,ESE,112,0.0,4.0,71,0.00,,,0.00,meteohub,2013-05-19 06:22:00,
2013-05-19 01:27:00,66.2,56.5,30.06,ESE,112,0.0,4.0,71,0.00,,,0.00,meteohub,2013-05-19 06:27:00,
2013-05-19 01:32:00,66.0,56.3,30.06,ESE,112,0.0,4.0,71,0.00,,,0.00,meteohub,2013-05-19 06:32:00,
2013-05-19 01:37:00,65.8,56.5,30.03,ESE,112,0.0,3.0,72,0.00,,,0.00,meteohub,2013-05-19 06:37:00,
2013-05-19 01:42:00,65.7,56.5,30.03,ESE,112,2.0,3.0,72,0.00,,,0.00,meteohub,2013-05-19 06:42:00,
2013-05-19 01:47:00,65.5,56.3,30.03,ESE,112,0.0,3.0,72,0.00,,,0.00,meteohub,2013-05-19 06:47:00,
2013-05-19 01:52:00,65.5,56.3,30.03,ESE,112,3.0,3.0,72,0.00,,,0.00,meteohub,2013-05-19 06:52:00,
2013-05-19 01:57:00,65.3,56.1,30.03,ESE,112,2.0,4.0,72,0.00,,,0.00,meteohub,2013-05-19 06:57:00,
2013-05-19 02:02:00,65.1,55.9,30.03,ESE,112,2.0,4.0,72,0.00,,,0.00,meteohub,2013-05-19 07:02:00,
2013-05-19 02:07:00,65.1,55.9,30.03,ESE,112,0.0,5.0,72,0.00,,,0.00,meteohub,2013-05-19 07:07:00,
2013-05-19 02:12:00,64.9,55.8,30.03,ESE,112,0.0,5.0,72,0.00,,,0.00,meteohub,2013-05-19 07:12:00,
2013-05-19 02:17:00,64.8,55.9,30.03,ESE,112,6.0,6.0,73,0.00,,,0.00,meteohub,2013-05-19 07:17:00,
2013-05-19 02:22:00,64.8,55.9,30.03,ESE,112,2.0,6.0,73,0.00,,,0.00,meteohub,2013-05-19 07:22:00,
2013-05-19 02:27:00,64.6,55.8,30.03,ESE,112,0.0,6.0,73,0.00,,,0.00,meteohub,2013-05-19 07:27:00,
2013-05-19 02:32:00,64.6,56.1,30.03,ESE,112,0.0,6.0,74,0.00,,,0.00,meteohub,2013-05-19 07:32:00,
2013-05-19 02:37:00,64.6,56.1,30.03,ESE,112,4.0,4.0,74,0.00,,,0.00,meteohub,2013-05-19 07:37:00,
2013-05-19 02:42:00,64.6,56.5,30.03,ESE,112,0.0,4.0,75,0.00,,,0.00,meteohub,2013-05-19 07:42:00,
2013-05-19 02:47:00,64.4,56.3,30.03,ESE,112,4.0,4.0,75,0.00,,,0.00,meteohub,2013-05-19 07:47:00,
2013-05-19 02:52:00,64.4,56.3,30.06,ESE,112,0.0,5.0,75,0.00,,,0.00,meteohub,2013-05-19 07:52:00,
2013-05-19 02:57:00,64.4,56.3,30.06,SE,135,3.0,5.0,75,0.00,,,0.00,meteohub,2013-05-19 07:57:00,
2013-05-19 03:02:00,64.2,56.5,30.06,ESE,112,4.0,6.0,76,0.00,,,0.00,meteohub,2013-05-19 08:02:00,
2013-05-19 03:07:00,64.2,56.5,30.06,East,90,5.0,6.0,76,0.00,,,0.00,meteohub,2013-05-19 08:07:00,
2013-05-19 03:12:00,64.2,56.5,30.06,ESE,112,5.0,6.0,76,0.00,,,0.00,meteohub,2013-05-19 08:12:00,
2013-05-19 03:17:00,64.2,56.8,30.06,ESE,112,3.0,6.0,77,0.00,,,0.00,meteohub,2013-05-19 08:17:00,
2013-05-19 03:22:00,64.2,56.8,30.06,East,90,4.0,5.0,77,0.00,,,0.00,meteohub,2013-05-19 08:22:00,
2013-05-19 03:27:00,64.2,57.2,30.03,SE,135,2.0,7.0,78,0.00,,,0.00,meteohub,2013-05-19 08:27:00,
2013-05-19 03:32:00,64.2,57.2,30.03,ESE,112,0.0,7.0,78,0.00,,,0.00,meteohub,2013-05-19 08:32:00,
2013-05-19 03:37:00,64.0,57.0,30.06,ESE,112,3.0,6.0,78,0.00,,,0.00,meteohub,2013-05-19 08:37:00,
2013-05-19 03:42:00,64.0,57.0,30.06,East,90,2.0,6.0,78,0.00,,,0.00,meteohub,2013-05-19 08:42:00,
2013-05-19 03:47:00,64.0,57.0,30.06,ESE,112,6.0,6.0,78,0.00,,,0.00,meteohub,2013-05-19 08:47:00,
2013-05-19 03:52:00,64.0,57.0,30.03,ESE,112,3.0,6.0,78,0.00,,,0.00,meteohub,2013-05-19 08:52:00,
2013-05-19 03:57:00,64.0,57.0,30.03,ESE,112,4.0,6.0,78,0.00,,,0.00,meteohub,2013-05-19 08:57:00,
2013-05-19 04:02:00,64.0,57.0,30.03,ESE,112,6.0,6.0,78,0.00,,,0.00,meteohub,2013-05-19 09:02:00,
2013-05-19 04:07:00,64.0,57.4,30.03,ESE,112,2.0,6.0,79,0.00,,,0.00,meteohub,2013-05-19 09:07:00,
2013-05-19 04:12:00,64.0,57.4,30.03,ESE,112,0.0,6.0,79,0.00,,,0.00,meteohub,2013-05-19 09:12:00,
2013-05-19 04:17:00,64.0,57.4,30.03,SE,135,2.0,6.0,79,0.00,,,0.00,meteohub,2013-05-19 09:17:00,
2013-05-19 04:22:00,64.0,57.4,30.03,South,180,0.0,6.0,79,0.00,,,0.00,meteohub,2013-05-19 09:22:00,
2013-05-19 04:27:00,64.0,57.4,30.03,SW,225,0.0,6.0,79,0.00,,,0.00,meteohub,2013-05-19 09:27:00,
2013-05-19 04:32:00,64.0,57.4,30.03,ESE,112,0.0,3.0,79,0.00,,,0.00,meteohub,2013-05-19 09:32:00,
2013-05-19 04:37:00,63.9,57.2,30.03,East,90,3.0,0.0,79,0.00,,,0.00,meteohub,2013-05-19 09:37:00,
2013-05-19 04:42:00,63.7,57.0,30.03,East,90,0.0,3.0,79,0.00,,,0.00,meteohub,2013-05-19 09:42:00,
2013-05-19 04:47:00,63.5,56.8,30.03,SSE,158,3.0,6.0,79,0.00,,,0.00,meteohub,2013-05-19 09:47:00,
2013-05-19 04:52:00,63.5,57.2,30.03,ESE,112,3.0,6.0,80,0.00,,,0.00,meteohub,2013-05-19 09:52:00,
2013-05-19 04:57:00,63.7,57.4,30.03,ESE,112,0.0,6.0,80,0.00,,,0.00,meteohub,2013-05-19 09:57:00,
2013-05-19 05:02:00,63.5,57.2,30.03,ESE,112,0.0,6.0,80,0.00,,,0.00,meteohub,2013-05-19 10:02:00,
2013-05-19 05:07:00,63.5,57.2,30.06,ESE,112,0.0,4.0,80,0.00,,,0.00,meteohub,2013-05-19 10:07:00,
2013-05-19 05:12:00,63.5,57.2,30.06,East,90,3.0,4.0,80,0.00,,,0.00,meteohub,2013-05-19 10:12:00,
2013-05-19 05:17:00,63.5,57.2,30.06,SE,135,4.0,4.0,80,0.00,,,0.00,meteohub,2013-05-19 10:17:00,
2013-05-19 05:22:00,63.3,57.4,30.03,East,90,2.0,4.0,81,0.00,,,0.00,meteohub,2013-05-19 10:22:00,
2013-05-19 05:27:00,63.3,57.4,30.03,ESE,112,0.0,4.0,81,0.00,,,0.00,meteohub,2013-05-19 10:27:00,
2013-05-19 05:32:00,63.1,56.8,30.03,SE,135,0.0,4.0,80,0.00,,,0.00,meteohub,2013-05-19 10:32:00,
2013-05-19 05:36:00,63.1,56.8,30.06,ESE,112,0.0,3.0,80,0.00,,,0.00,meteohub,2013-05-19 10:36:00,
2013-05-19 05:42:00,63.1,57.2,30.06,ESE,112,0.0,3.0,81,0.00,,,0.00,meteohub,2013-05-19 10:42:00,
2013-05-19 05:47:00,63.1,57.2,30.06,SSW,202,0.0,0.0,81,0.00,,,0.00,meteohub,2013-05-19 10:47:00,
2013-05-19 05:52:00,63.3,57.4,30.06,ESE,112,0.0,0.0,81,0.00,,,0.00,meteohub,2013-05-19 10:52:00,
2013-05-19 05:57:00,63.5,57.6,30.06,ESE,112,0.0,0.0,81,0.00,,,0.00,meteohub,2013-05-19 10:57:00,
2013-05-19 06:02:00,63.5,57.6,30.06,SSW,202,0.0,0.0,81,0.00,,,0.00,meteohub,2013-05-19 11:02:00,
2013-05-19 06:07:00,63.7,57.7,30.06,SW,225,0.0,0.0,81,0.00,,,0.00,meteohub,2013-05-19 11:07:00,
2013-05-19 06:12:00,63.9,57.9,30.06,SSE,158,0.0,0.0,81,0.00,,,0.00,meteohub,2013-05-19 11:12:00,
2013-05-19 06:17:00,64.0,58.1,30.06,SSE,158,0.0,0.0,81,0.00,,,0.00,meteohub,2013-05-19 11:17:00,
2013-05-19 06:22:00,64.2,58.3,30.03,ESE,112,0.0,0.0,81,0.00,,,0.00,meteohub,2013-05-19 11:22:00,
2013-05-19 06:27:00,64.4,58.5,30.03,ESE,112,0.0,2.0,81,0.00,,,0.00,meteohub,2013-05-19 11:27:00,
2013-05-19 06:32:00,64.6,58.6,30.03,ESE,112,4.0,4.0,81,0.00,,,0.00,meteohub,2013-05-19 11:32:00,
2013-05-19 06:37:00,64.9,59.0,30.06,ESE,112,0.0,4.0,81,0.00,,,0.00,meteohub,2013-05-19 11:37:00,
2013-05-19 06:42:00,65.5,59.5,30.06,ESE,112,0.0,4.0,81,0.00,,,0.00,meteohub,2013-05-19 11:42:00,
2013-05-19 06:47:00,65.7,59.7,30.06,East,90,0.0,4.0,81,0.00,,,0.00,meteohub,2013-05-19 11:47:00,
2013-05-19 06:52:00,66.2,60.3,30.09,ESE,112,3.0,4.0,81,0.00,,,0.00,meteohub,2013-05-19 11:52:00,
2013-05-19 06:57:00,66.9,61.0,30.09,ESE,112,3.0,4.0,81,0.00,,,0.00,meteohub,2013-05-19 11:57:00,
2013-05-19 07:02:00,67.5,61.2,30.09,ESE,112,2.0,4.0,80,0.00,,,0.00,meteohub,2013-05-19 12:02:00,
2013-05-19 07:07:00,67.8,61.3,30.06,East,90,6.0,6.0,80,0.00,,,0.00,meteohub,2013-05-19 12:07:00,
2013-05-19 07:12:00,68.2,61.3,30.06,East,90,5.0,6.0,79,0.00,,,0.00,meteohub,2013-05-19 12:12:00,
2013-05-19 07:17:00,68.5,61.3,30.06,East,90,2.0,9.0,78,0.00,,,0.00,meteohub,2013-05-19 12:17:00,
2013-05-19 07:22:00,68.9,61.7,30.06,East,90,0.0,9.0,78,0.00,,,0.00,meteohub,2013-05-19 12:22:00,
2013-05-19 07:27:00,69.3,61.7,30.06,East,90,3.0,6.0,77,0.00,,,0.00,meteohub,2013-05-19 12:27:00,
2013-05-19 07:32:00,69.3,61.3,30.06,SE,135,4.0,6.0,76,0.00,,,0.00,meteohub,2013-05-19 12:32:00,
2013-05-19 07:37:00,69.4,61.5,30.06,East,90,2.0,6.0,76,0.00,,,0.00,meteohub,2013-05-19 12:37:00,
2013-05-19 07:42:00,69.8,61.5,30.06,ESE,112,5.0,6.0,75,0.00,,,0.00,meteohub,2013-05-19 12:42:00,
2013-05-19 07:47:00,70.0,61.7,30.06,East,90,3.0,9.0,75,0.00,,,0.00,meteohub,2013-05-19 12:47:00,
2013-05-19 07:52:00,70.2,61.5,30.03,East,90,8.0,9.0,74,0.00,,,0.00,meteohub,2013-05-19 12:52:00,
2013-05-19 07:57:00,70.3,61.3,30.03,SE,135,5.0,8.0,73,0.00,,,0.00,meteohub,2013-05-19 12:57:00,
2013-05-19 08:02:00,70.7,61.7,30.03,SSE,158,6.0,9.0,73,0.00,,,0.00,meteohub,2013-05-19 13:02:00,
2013-05-19 08:07:00,70.9,61.3,30.03,East,90,7.0,12.0,72,0.00,,,0.00,meteohub,2013-05-19 13:07:00,
2013-05-19 08:12:00,71.2,62.1,30.03,East,90,8.0,12.0,73,0.00,,,0.00,meteohub,2013-05-19 13:12:00,
2013-05-19 08:17:00,71.8,62.2,30.03,ENE,68,5.0,10.0,72,0.00,,,0.00,meteohub,2013-05-19 13:17:00,
2013-05-19 08:22:00,72.1,62.6,30.03,SE,135,5.0,11.0,72,0.00,,,0.00,meteohub,2013-05-19 13:22:00,
2013-05-19 08:27:00,72.7,63.1,30.03,East,90,4.0,11.0,72,0.00,,,0.00,meteohub,2013-05-19 13:27:00,
2013-05-19 08:32:00,72.9,63.3,30.03,ESE,112,6.0,10.0,72,0.00,,,0.00,meteohub,2013-05-19 13:32:00,
2013-05-19 08:37:00,73.4,63.0,30.06,ESE,112,3.0,12.0,70,0.00,,,0.00,meteohub,2013-05-19 13:37:00,
2013-05-19 08:42:00,73.6,62.8,30.06,SE,135,7.0,12.0,69,0.00,,,0.00,meteohub,2013-05-19 13:42:00,
2013-05-19 08:47:00,73.9,63.1,30.06,WNW,292,3.0,12.0,69,0.00,,,0.00,meteohub,2013-05-19 13:47:00,
2013-05-19 08:52:00,74.5,63.1,30.03,East,90,5.0,9.0,68,0.00,,,0.00,meteohub,2013-05-19 13:52:00,
2013-05-19 08:57:00,75.0,63.7,30.03,ENE,68,7.0,9.0,68,0.00,,,0.00,meteohub,2013-05-19 13:57:00,
2013-05-19 09:02:00,75.0,63.3,30.03,SE,135,4.0,7.0,67,0.00,,,0.00,meteohub,2013-05-19 14:02:00,
2013-05-19 09:07:00,74.8,62.8,30.03,South,180,0.0,7.0,66,0.00,,,0.00,meteohub,2013-05-19 14:07:00,
2013-05-19 09:12:00,75.0,63.0,30.03,South,180,2.0,7.0,66,0.00,,,0.00,meteohub,2013-05-19 14:12:00,
2013-05-19 09:17:00,75.6,63.3,30.03,ESE,112,2.0,6.0,66,0.00,,,0.00,meteohub,2013-05-19 14:17:00,
2013-05-19 09:22:00,75.9,63.7,30.03,SSE,158,5.0,5.0,66,0.00,,,0.00,meteohub,2013-05-19 14:22:00,
2013-05-19 09:27:00,76.5,63.9,30.06,SW,225,0.0,5.0,65,0.00,,,0.00,meteohub,2013-05-19 14:27:00,
2013-05-19 09:32:00,77.2,64.0,30.06,SSE,158,2.0,5.0,64,0.00,,,0.00,meteohub,2013-05-19 14:32:00,
2013-05-19 09:37:00,77.4,63.9,30.06,SE,135,4.0,9.0,63,0.00,,,0.00,meteohub,2013-05-19 14:37:00,
2013-05-19 09:42:00,77.9,63.3,30.06,WNW,292,3.0,9.0,61,0.00,,,0.00,meteohub,2013-05-19 14:42:00,
2013-05-19 09:47:00,78.3,63.3,30.06,SW,225,3.0,9.0,60,0.00,,,0.00,meteohub,2013-05-19 14:47:00,
2013-05-19 09:52:00,78.4,62.4,30.06,SSW,202,0.0,5.0,58,0.00,,,0.00,meteohub,2013-05-19 14:52:00,
2013-05-19 09:57:00,78.6,62.6,30.06,ESE,112,3.0,5.0,58,0.00,,,0.00,meteohub,2013-05-19 14:57:00,
2013-05-19 10:02:00,78.8,61.3,30.06,East,90,7.0,7.0,55,0.00,,,0.00,meteohub,2013-05-19 15:02:00,
2013-05-19 10:07:00,78.8,60.8,30.00,SE,135,4.0,8.0,54,0.00,,,0.00,meteohub,2013-05-19 15:07:00,
2013-05-19 10:12:00,78.6,59.5,30.00,East,90,6.0,10.0,52,0.00,,,0.00,meteohub,2013-05-19 15:12:00,
2013-05-19 10:17:00,78.6,60.6,30.00,SE,135,5.0,10.0,54,0.00,,,0.00,meteohub,2013-05-19 15:17:00,
2013-05-19 10:22:00,78.4,59.4,30.00,ESE,112,6.0,10.0,52,0.00,,,0.00,meteohub,2013-05-19 15:22:00,
2013-05-19 10:27:00,78.3,58.6,30.00,ESE,112,10.0,10.0,51,0.00,,,0.00,meteohub,2013-05-19 15:27:00,
2013-05-19 10:32:00,78.4,59.4,30.00,East,90,4.0,10.0,52,0.00,,,0.00,meteohub,2013-05-19 15:32:00,
2013-05-19 10:37:00,78.6,59.5,30.00,NNE,22,9.0,10.0,52,0.00,,,0.00,meteohub,2013-05-19 15:37:00,
2013-05-19 10:42:00,78.6,59.0,30.00,East,90,5.0,10.0,51,0.00,,,0.00,meteohub,2013-05-19 15:42:00,
2013-05-19 10:47:00,78.8,58.6,30.00,ENE,68,5.0,11.0,50,0.00,,,0.00,meteohub,2013-05-19 15:47:00,
2013-05-19 10:52:00,79.2,59.5,30.00,ESE,112,6.0,17.0,51,0.00,,,0.00,meteohub,2013-05-19 15:52:00,
2013-05-19 10:57:00,79.5,59.2,30.00,ENE,68,7.0,17.0,50,0.00,,,0.00,meteohub,2013-05-19 15:57:00,
2013-05-19 11:02:00,79.7,59.4,30.00,ENE,68,9.0,17.0,50,0.00,,,0.00,meteohub,2013-05-19 16:02:00,
2013-05-19 11:07:00,79.9,59.5,30.00,East,90,7.0,13.0,50,0.00,,,0.00,meteohub,2013-05-19 16:07:00,
2013-05-19 11:12:00,79.9,59.0,30.00,East,90,10.0,14.0,49,0.00,,,0.00,meteohub,2013-05-19 16:12:00,
2013-05-19 11:18:00,79.9,58.5,30.00,SSE,158,6.0,14.0,48,0.00,,,0.00,meteohub,2013-05-19 16:18:00,
2013-05-19 11:23:00,80.2,59.4,30.00,ESE,112,7.0,13.0,49,0.00,,,0.00,meteohub,2013-05-19 16:23:00,
2013-05-19 11:28:00,80.6,59.2,30.00,East,90,8.0,14.0,48,0.00,,,0.00,meteohub,2013-05-19 16:28:00,
2013-05-19 11:33:00,81.0,59.4,30.00,ENE,68,8.0,14.0,48,0.00,,,0.00,meteohub,2013-05-19 16:33:00,
2013-05-19 11:38:00,81.1,59.0,30.00,East,90,9.0,13.0,47,0.00,,,0.00,meteohub,2013-05-19 16:38:00,
2013-05-19 11:43:00,81.5,58.1,30.00,NNE,22,7.0,13.0,45,0.00,,,0.00,meteohub,2013-05-19 16:43:00,
2013-05-19 11:48:00,81.7,58.3,30.00,East,90,14.0,21.0,45,0.00,,,0.00,meteohub,2013-05-19 16:48:00,
2013-05-19 11:53:00,81.9,58.5,30.00,East,90,10.0,21.0,45,0.00,,,0.00,meteohub,2013-05-19 16:53:00,
2013-05-19 11:58:00,82.2,58.8,30.00,ENE,68,10.0,21.0,45,0.00,,,0.00,meteohub,2013-05-19 16:58:00,
2013-05-19 12:03:00,82.4,57.7,30.00,SE,135,9.0,14.0,43,0.00,,,0.00,meteohub,2013-05-19 17:03:00,
2013-05-19 12:08:00,82.4,57.7,29.97,ESE,112,12.0,19.0,43,0.00,,,0.00,meteohub,2013-05-19 17:08:00,
2013-05-19 12:13:00,82.0,57.4,29.97,East,90,9.0,19.0,43,0.00,,,0.00,meteohub,2013-05-19 17:13:00,
2013-05-19 12:18:00,81.9,57.7,29.97,ESE,112,9.0,19.0,44,0.00,,,0.00,meteohub,2013-05-19 17:18:00,
2013-05-19 12:23:00,82.2,58.8,30.00,East,90,11.0,13.0,45,0.00,,,0.00,meteohub,2013-05-19 17:23:00,
2013-05-19 12:28:00,82.4,58.3,30.00,East,90,12.0,13.0,44,0.00,,,0.00,meteohub,2013-05-19 17:28:00,
2013-05-19 12:33:00,82.8,58.6,30.00,East,90,13.0,17.0,44,0.00,,,0.00,meteohub,2013-05-19 17:33:00,
2013-05-19 12:38:00,83.1,59.5,29.94,ESE,112,10.0,17.0,45,0.00,,,0.00,meteohub,2013-05-19 17:38:00,
2013-05-19 12:43:00,83.3,58.5,29.94,ESE,112,12.0,17.0,43,0.00,,,0.00,meteohub,2013-05-19 17:43:00,
2013-05-19 12:48:00,83.3,59.2,29.94,ESE,112,13.0,20.0,44,0.00,,,0.00,meteohub,2013-05-19 17:48:00,
2013-05-19 12:53:00,83.7,58.8,29.94,SE,135,13.0,20.0,43,0.00,,,0.00,meteohub,2013-05-19 17:53:00,
2013-05-19 12:58:00,83.7,58.8,29.94,East,90,11.0,20.0,43,0.00,,,0.00,meteohub,2013-05-19 17:58:00,
2013-05-19 13:03:00,83.7,58.8,29.94,SE,135,10.0,18.0,43,0.00,,,0.00,meteohub,2013-05-19 18:03:00,
2013-05-19 13:08:00,84.0,59.2,29.94,ESE,112,11.0,18.0,43,0.00,,,0.00,meteohub,2013-05-19 18:08:00,
2013-05-19 13:13:00,84.2,59.4,29.94,SE,135,14.0,23.0,43,0.00,,,0.00,meteohub,2013-05-19 18:13:00,
2013-05-19 13:18:00,84.4,58.8,29.94,ESE,112,8.0,23.0,42,0.00,,,0.00,meteohub,2013-05-19 18:18:00,
2013-05-19 13:24:00,84.4,58.8,29.97,SW,225,11.0,23.0,42,0.00,,,0.00,meteohub,2013-05-19 18:24:00,
2013-05-19 13:28:00,85.1,58.8,29.97,East,90,8.0,18.0,41,0.00,,,0.00,meteohub,2013-05-19 18:28:00,
2013-05-19 13:34:00,85.1,58.8,29.97,SSE,158,2.0,18.0,41,0.00,,,0.00,meteohub,2013-05-19 18:34:00,
2013-05-19 13:39:00,85.3,58.3,30.00,WSW,248,7.0,18.0,40,0.00,,,0.00,meteohub,2013-05-19 18:39:00,
2013-05-19 13:44:00,85.5,58.5,30.00,SSE,158,4.0,14.0,40,0.00,,,0.00,meteohub,2013-05-19 18:44:00,
2013-05-19 13:49:00,85.6,58.5,30.00,SE,135,9.0,16.0,40,0.00,,,0.00,meteohub,2013-05-19 18:49:00,
2013-05-19 13:54:00,85.8,58.6,29.94,SSE,158,4.0,16.0,40,0.00,,,0.00,meteohub,2013-05-19 18:54:00,
2013-05-19 13:59:00,85.6,58.5,29.94,ESE,112,9.0,16.0,40,0.00,,,0.00,meteohub,2013-05-19 18:59:00,
2013-05-19 14:04:00,85.6,59.2,29.94,SE,135,9.0,15.0,41,0.00,,,0.00,meteohub,2013-05-19 19:04:00,
2013-05-19 14:09:00,85.6,58.5,29.94,SE,135,8.0,14.0,40,0.00,,,0.00,meteohub,2013-05-19 19:09:00,
2013-05-19 14:14:00,85.8,58.6,29.94,ESE,112,2.0,14.0,40,0.00,,,0.00,meteohub,2013-05-19 19:14:00,
2013-05-19 14:19:00,86.0,59.5,29.94,North,0,2.0,14.0,41,0.00,,,0.00,meteohub,2013-05-19 19:19:00,
2013-05-19 14:24:00,86.0,58.8,29.94,West,270,4.0,13.0,40,0.00,,,0.00,meteohub,2013-05-19 19:24:00,
2013-05-19 14:29:00,85.8,59.4,29.94,ESE,112,5.0,13.0,41,0.00,,,0.00,meteohub,2013-05-19 19:29:00,
2013-05-19 14:34:00,86.0,58.8,29.94,SE,135,4.0,13.0,40,0.00,,,0.00,meteohub,2013-05-19 19:34:00,
2013-05-19 14:39:00,86.0,58.8,29.91,West,270,8.0,8.0,40,0.00,,,0.00,meteohub,2013-05-19 19:39:00,
2013-05-19 14:44:00,85.8,59.4,29.91,SE,135,6.0,7.0,41,0.00,,,0.00,meteohub,2013-05-19 19:44:00,
2013-05-19 14:49:00,85.6,59.2,29.91,East,90,6.0,10.0,41,0.00,,,0.00,meteohub,2013-05-19 19:49:00,
2013-05-19 14:54:00,85.6,59.2,29.94,SSE,158,6.0,10.0,41,0.00,,,0.00,meteohub,2013-05-19 19:54:00,
2013-05-19 14:59:00,85.8,59.4,29.94,ESE,112,5.0,8.0,41,0.00,,,0.00,meteohub,2013-05-19 19:59:00,
2013-05-19 15:04:00,86.0,59.5,29.94,East,90,8.0,9.0,41,0.00,,,0.00,meteohub,2013-05-19 20:04:00,
2013-05-19 15:09:00,85.8,58.6,29.94,SSW,202,4.0,9.0,40,0.00,,,0.00,meteohub,2013-05-19 20:09:00,
2013-05-19 15:14:00,85.6,59.2,29.94,ESE,112,5.0,9.0,41,0.00,,,0.00,meteohub,2013-05-19 20:14:00,
2013-05-19 15:19:00,85.6,59.2,29.94,ESE,112,5.0,10.0,41,0.00,,,0.00,meteohub,2013-05-19 20:19:00,
2013-05-19 15:24:00,85.8,60.1,29.91,SE,135,4.0,10.0,42,0.00,,,0.00,meteohub,2013-05-19 20:24:00,
2013-05-19 15:29:00,86.0,60.3,29.91,SE,135,5.0,10.0,42,0.00,,,0.00,meteohub,2013-05-19 20:29:00,
2013-05-19 15:34:00,86.2,60.4,29.91,SE,135,6.0,9.0,42,0.00,,,0.00,meteohub,2013-05-19 20:34:00,
2013-05-19 15:39:00,86.5,60.8,29.91,ESE,112,0.0,9.0,42,0.00,,,0.00,meteohub,2013-05-19 20:39:00,
2013-05-19 15:44:00,86.7,60.3,29.91,East,90,4.0,9.0,41,0.00,,,0.00,meteohub,2013-05-19 20:44:00,
2013-05-19 15:49:00,86.5,59.4,29.91,ESE,112,5.0,9.0,40,0.00,,,0.00,meteohub,2013-05-19 20:49:00,
2013-05-19 15:54:00,86.7,59.5,29.88,East,90,3.0,10.0,40,0.00,,,0.00,meteohub,2013-05-19 20:54:00,
2013-05-19 15:59:00,86.9,59.0,29.88,ESE,112,5.0,10.0,39,0.00,,,0.00,meteohub,2013-05-19 20:59:00,
2013-05-19 16:04:00,86.9,59.0,29.88,South,180,6.0,10.0,39,0.00,,,0.00,meteohub,2013-05-19 21:04:00,
2013-05-19 16:09:00,86.9,58.3,29.88,East,90,7.0,13.0,38,0.00,,,0.00,meteohub,2013-05-19 21:09:00,
2013-05-19 16:15:00,86.9,59.0,29.88,NE,45,7.0,13.0,39,0.00,,,0.00,meteohub,2013-05-19 21:15:00,
2013-05-19 16:20:00,86.9,58.3,29.88,East,90,6.0,10.0,38,0.00,,,0.00,meteohub,2013-05-19 21:20:00,
2013-05-19 16:25:00,86.7,58.1,29.88,NE,45,7.0,12.0,38,0.00,,,0.00,meteohub,2013-05-19 21:25:00,
2013-05-19 16:30:00,86.7,58.1,29.88,NW,315,6.0,13.0,38,0.00,,,0.00,meteohub,2013-05-19 21:30:00,
2013-05-19 16:35:00,86.9,58.3,29.88,NE,45,7.0,13.0,38,0.00,,,0.00,meteohub,2013-05-19 21:35:00,
2013-05-19 16:40:00,86.5,58.6,29.88,ESE,112,9.0,13.0,39,0.00,,,0.00,meteohub,2013-05-19 21:40:00,
2013-05-19 16:45:00,86.5,58.6,29.88,ESE,112,10.0,12.0,39,0.00,,,0.00,meteohub,2013-05-19 21:45:00,
2013-05-19 16:50:00,86.5,58.6,29.88,SE,135,13.0,14.0,39,0.00,,,0.00,meteohub,2013-05-19 21:50:00,
2013-05-19 16:55:00,86.4,58.5,29.85,East,90,9.0,14.0,39,0.00,,,0.00,meteohub,2013-05-19 21:55:00,
2013-05-19 17:00:00,86.5,59.4,29.85,East,90,7.0,13.0,40,0.00,,,0.00,meteohub,2013-05-19 22:00:00,
2013-05-19 17:05:00,86.5,58.6,29.85,ESE,112,10.0,13.0,39,0.00,,,0.00,meteohub,2013-05-19 22:05:00,
2013-05-19 17:10:00,86.5,59.4,29.88,ESE,112,7.0,16.0,40,0.00,,,0.00,meteohub,2013-05-19 22:10:00,
2013-05-19 17:15:00,86.7,58.8,29.88,East,90,9.0,16.0,39,0.00,,,0.00,meteohub,2013-05-19 22:15:00,
2013-05-19 17:20:00,86.5,58.6,29.88,ESE,112,7.0,16.0,39,0.00,,,0.00,meteohub,2013-05-19 22:20:00,
2013-05-19 17:25:00,86.5,57.9,29.88,ESE,112,12.0,13.0,38,0.00,,,0.00,meteohub,2013-05-19 22:25:00,
2013-05-19 17:30:00,86.7,57.4,29.88,NE,45,7.0,13.0,37,0.00,,,0.00,meteohub,2013-05-19 22:30:00,
2013-05-19 17:35:00,86.9,57.6,29.88,East,90,9.0,13.0,37,0.00,,,0.00,meteohub,2013-05-19 22:35:00,
2013-05-19 17:40:00,86.9,58.3,29.88,East,90,10.0,12.0,38,0.00,,,0.00,meteohub,2013-05-19 22:40:00,
2013-05-19 17:45:00,87.1,58.5,29.88,ENE,68,11.0,13.0,38,0.00,,,0.00,meteohub,2013-05-19 22:45:00,
2013-05-19 17:50:00,87.1,57.6,29.88,SE,135,11.0,14.0,37,0.00,,,0.00,meteohub,2013-05-19 22:50:00,
2013-05-19 17:55:00,87.3,58.6,29.85,East,90,7.0,17.0,38,0.00,,,0.00,meteohub,2013-05-19 22:55:00,
2013-05-19 18:00:00,87.3,57.7,29.85,ESE,112,7.0,17.0,37,0.00,,,0.00,meteohub,2013-05-19 23:00:00,
2013-05-19 18:05:00,87.1,56.8,29.85,East,90,6.0,14.0,36,0.00,,,0.00,meteohub,2013-05-19 23:05:00,
2013-05-19 18:10:00,86.9,56.7,29.82,ESE,112,6.0,21.0,36,0.00,,,0.00,meteohub,2013-05-19 23:10:00,
2013-05-19 18:16:00,86.7,55.8,29.82,East,90,6.0,21.0,35,0.00,,,0.00,meteohub,2013-05-19 23:16:00,
2013-05-19 18:21:00,86.5,56.5,29.82,East,90,3.0,21.0,36,0.00,,,0.00,meteohub,2013-05-19 23:21:00,
2013-05-19 18:26:00,86.5,56.5,29.82,ENE,68,19.0,19.0,36,0.00,,,0.00,meteohub,2013-05-19 23:26:00,
2013-05-19 18:31:00,86.4,56.3,29.82,ESE,112,10.0,19.0,36,0.00,,,0.00,meteohub,2013-05-19 23:31:00,
2013-05-19 18:36:00,86.0,55.9,29.82,East,90,9.0,21.0,36,0.00,,,0.00,meteohub,2013-05-19 23:36:00,
2013-05-19 18:41:00,85.8,55.8,29.82,East,90,6.0,21.0,36,0.00,,,0.00,meteohub,2013-05-19 23:41:00,
2013-05-19 18:46:00,85.6,55.6,29.82,ESE,112,6.0,21.0,36,0.00,,,0.00,meteohub,2013-05-19 23:46:00,
2013-05-19 18:51:00,85.5,56.3,29.82,ESE,112,4.0,17.0,37,0.00,,,0.00,meteohub,2013-05-19 23:51:00,
2013-05-19 18:56:00,84.9,56.5,29.82,East,90,4.0,14.0,38,0.00,,,0.00,meteohub,2013-05-19 23:56:00,
2013-05-19 19:02:00,84.7,57.0,29.82,SSE,158,7.0,10.0,39,0.00,,,0.00,meteohub,2013-05-20 00:02:00,
2013-05-19 19:07:00,84.6,56.1,29.82,East,90,5.0,10.0,38,0.00,,,0.00,meteohub,2013-05-20 00:07:00,
2013-05-19 19:12:00,84.4,56.7,29.85,East,90,6.0,10.0,39,0.00,,,0.00,meteohub,2013-05-20 00:12:00,
2013-05-19 19:17:00,84.2,55.8,29.85,ESE,112,8.0,14.0,38,0.00,,,0.00,meteohub,2013-05-20 00:17:00,
2013-05-19 19:22:00,84.2,56.5,29.85,East,90,7.0,14.0,39,0.00,,,0.00,meteohub,2013-05-20 00:22:00,
2013-05-19 19:27:00,84.0,56.5,29.85,NE,45,9.0,14.0,39,0.00,,,0.00,meteohub,2013-05-20 00:27:00,
2013-05-19 19:32:00,83.7,56.1,29.85,SE,135,9.0,13.0,39,0.00,,,0.00,meteohub,2013-05-20 00:32:00,
2013-05-19 19:37:00,83.5,55.9,29.85,East,90,11.0,13.0,39,0.00,,,0.00,meteohub,2013-05-20 00:37:00,
2013-05-19 19:42:00,83.3,55.8,29.85,NE,45,10.0,13.0,39,0.00,,,0.00,meteohub,2013-05-20 00:42:00,
2013-05-19 19:47:00,83.1,55.6,29.85,East,90,10.0,16.0,39,0.00,,,0.00,meteohub,2013-05-20 00:47:00,
2013-05-19 19:52:00,82.9,55.4,29.85,ENE,68,5.0,17.0,39,0.00,,,0.00,meteohub,2013-05-20 00:52:00,
2013-05-19 19:57:00,82.8,55.2,29.85,East,90,7.0,17.0,39,0.00,,,0.00,meteohub,2013-05-20 00:57:00,
2013-05-19 20:02:00,82.6,55.0,29.85,ESE,112,10.0,17.0,39,0.00,,,0.00,meteohub,2013-05-20 01:02:00,
2013-05-19 20:07:00,82.2,55.6,29.85,SE,135,6.0,13.0,40,0.00,,,0.00,meteohub,2013-05-20 01:07:00,
2013-05-19 20:12:00,82.0,55.4,29.85,East,90,7.0,13.0,40,0.00,,,0.00,meteohub,2013-05-20 01:12:00,
2013-05-19 20:17:00,81.9,55.2,29.85,ESE,112,7.0,16.0,40,0.00,,,0.00,meteohub,2013-05-20 01:17:00,
2013-05-19 20:22:00,81.7,55.8,29.85,East,90,10.0,16.0,41,0.00,,,0.00,meteohub,2013-05-20 01:22:00,
2013-05-19 20:27:00,81.7,55.8,29.85,East,90,13.0,16.0,41,0.00,,,0.00,meteohub,2013-05-20 01:27:00,
2013-05-19 20:32:00,81.5,55.6,29.85,ESE,112,6.0,13.0,41,0.00,,,0.00,meteohub,2013-05-20 01:32:00,
2013-05-19 20:37:00,81.3,55.4,29.85,SSW,202,2.0,13.0,41,0.00,,,0.00,meteohub,2013-05-20 01:37:00,
2013-05-19 20:42:00,80.4,49.5,29.85,WNW,292,17.0,17.0,34,0.00,,,0.00,meteohub,2013-05-20 01:42:00,
2013-05-19 20:47:00,78.6,52.3,29.85,WSW,248,6.0,17.0,40,0.00,,,0.00,meteohub,2013-05-20 01:47:00,
2013-05-19 20:52:00,76.3,52.7,29.88,NE,45,3.0,17.0,44,0.00,,,0.00,meteohub,2013-05-20 01:52:00,
2013-05-19 20:57:00,73.9,53.6,29.88,ESE,112,11.0,17.0,49,0.00,,,0.00,meteohub,2013-05-20 01:57:00,
2013-05-19 21:02:00,72.7,53.6,29.88,West,270,4.0,11.0,51,0.00,,,0.00,meteohub,2013-05-20 02:02:00,
2013-05-19 21:07:00,71.6,54.1,29.91,ESE,112,6.0,11.0,54,0.00,,,0.00,meteohub,2013-05-20 02:07:00,
2013-05-19 21:12:00,70.9,54.5,29.91,ENE,68,2.0,11.0,56,0.05,,,0.05,meteohub,2013-05-20 02:12:00,
2013-05-19 21:17:00,70.2,55.2,29.91,ESE,112,3.0,9.0,59,0.05,,,0.05,meteohub,2013-05-20 02:17:00,
2013-05-19 21:22:00,69.8,56.1,29.88,East,90,4.0,10.0,62,0.05,,,0.05,meteohub,2013-05-20 02:22:00,
2013-05-19 21:27:00,69.4,56.7,29.88,East,90,5.0,10.0,64,0.05,,,0.05,meteohub,2013-05-20 02:27:00,
2013-05-19 21:32:00,69.3,57.0,29.88,SSE,158,4.0,10.0,65,0.05,,,0.05,meteohub,2013-05-20 02:32:00,
2013-05-19 21:38:00,68.9,56.7,29.88,East,90,3.0,8.0,65,0.05,,,0.05,meteohub,2013-05-20 02:38:00,
2013-05-19 21:43:00,68.9,56.7,29.88,East,90,2.0,8.0,65,0.05,,,0.05,meteohub,2013-05-20 02:43:00,
2013-05-19 21:48:00,68.7,56.8,29.88,East,90,6.0,8.0,66,0.05,,,0.05,meteohub,2013-05-20 02:48:00,
2013-05-19 21:53:00,68.7,57.4,29.82,SE,135,7.0,10.0,67,0.05,,,0.05,meteohub,2013-05-20 02:53:00,
2013-05-19 21:58:00,68.7,57.4,29.82,ESE,112,2.0,10.0,67,0.05,,,0.05,meteohub,2013-05-20 02:58:00,
2013-05-19 22:03:00,68.9,57.6,29.82,East,90,6.0,10.0,67,0.05,,,0.05,meteohub,2013-05-20 03:03:00,
2013-05-19 22:08:00,68.9,57.6,29.85,ESE,112,3.0,9.0,67,0.00,,,0.05,meteohub,2013-05-20 03:08:00,
2013-05-19 22:13:00,68.9,57.9,29.85,ESE,112,4.0,8.0,68,0.00,,,0.05,meteohub,2013-05-20 03:13:00,
2013-05-19 22:18:00,68.7,58.1,29.85,NE,45,2.0,8.0,69,0.00,,,0.05,meteohub,2013-05-20 03:18:00,
2013-05-19 22:23:00,68.5,57.9,29.85,East,90,4.0,11.0,69,0.00,,,0.05,meteohub,2013-05-20 03:23:00,
2013-05-19 22:28:00,68.5,57.9,29.85,ESE,112,2.0,11.0,69,0.00,,,0.05,meteohub,2013-05-20 03:28:00,
2013-05-19 22:33:00,68.4,57.7,29.85,ESE,112,4.0,11.0,69,0.00,,,0.05,meteohub,2013-05-20 03:33:00,
2013-05-19 22:38:00,68.4,57.7,29.85,ESE,112,0.0,8.0,69,0.00,,,0.05,meteohub,2013-05-20 03:38:00,
2013-05-19 22:43:00,68.4,58.3,29.85,East,90,3.0,6.0,70,0.00,,,0.05,meteohub,2013-05-20 03:43:00,
2013-05-19 22:48:00,68.2,58.1,29.85,SE,135,6.0,6.0,70,0.00,,,0.05,meteohub,2013-05-20 03:48:00,
2013-05-19 22:53:00,68.2,58.1,29.85,SE,135,2.0,6.0,70,0.00,,,0.05,meteohub,2013-05-20 03:53:00,
2013-05-19 22:58:00,68.2,58.1,29.85,ESE,112,4.0,6.0,70,0.00,,,0.05,meteohub,2013-05-20 03:58:00,
2013-05-19 23:01:00,68.2,58.1,29.85,East,90,5.0,6.0,70,0.00,,,0.05,meteohub,2013-05-20 04:01:00,
2013-05-19 23:06:00,68.2,58.1,29.82,East,90,3.0,6.0,70,0.00,,,0.05,meteohub,2013-05-20 04:06:00,
2013-05-19 23:11:00,68.0,57.9,29.82,SE,135,4.0,8.0,70,0.00,,,0.05,meteohub,2013-05-20 04:11:00,
2013-05-19 23:16:00,68.0,57.9,29.82,East,90,4.0,8.0,70,0.00,,,0.05,meteohub,2013-05-20 04:16:00,
2013-05-19 23:21:00,68.0,58.3,29.85,SE,135,0.0,8.0,71,0.00,,,0.05,meteohub,2013-05-20 04:21:00,
2013-05-19 23:27:00,68.0,58.3,29.85,SE,135,5.0,5.0,71,0.00,,,0.05,meteohub,2013-05-20 04:27:00,
2013-05-19 23:32:00,68.0,58.3,29.85,ESE,112,6.0,6.0,71,0.00,,,0.05,meteohub,2013-05-20 04:32:00,
2013-05-19 23:37:00,68.0,58.3,29.85,ESE,112,5.0,6.0,71,0.00,,,0.05,meteohub,2013-05-20 04:37:00,
2013-05-19 23:42:00,68.0,58.3,29.85,ESE,112,4.0,6.0,71,0.00,,,0.05,meteohub,2013-05-20 04:42:00,
2013-05-19 23:47:00,68.0,58.6,29.85,SE,135,4.0,6.0,72,0.00,,,0.05,meteohub,2013-05-20 04:47:00,
2013-05-19 23:52:00,68.0,58.6,29.85,ESE,112,6.0,8.0,72,0.00,,,0.05,meteohub,2013-05-20 04:52:00,
2013-05-19 23:57:00,68.2,58.8,29.85,ESE,112,7.0,8.0,72,0.00,,,0.05,meteohub,2013-05-20 04:57:00,